Time;durP1;ratioP1;P1;durP2;ratioP2;P2;SDS_P1;SDS_P2;PMS_P1;PMS_P2;Temp;Humidity;BMP_temperature;BMP_pressure;BME280_temperature;BME280_humidity;BME280_pressure;Samples;Min_cycle;Max_cycle;Signal;HPM_P1;HPM_P2
2023/03/17 00:00:01;;;;;;;;;;;;;;;5.57;74.69;100007.47;5072925;28;20346;-88
2023/03/17 00:02:26;;;;;;;;;;;;;;;5.48;74.21;100015.22;5072415;28;19995;-88
2023/03/17 00:04:52;;;;;;;;;;;;;;;5.41;74.46;100015.16;5072329;28;19919;-88
2023/03/17 00:07:17;;;;;;;;;;;;;;;5.23;74.97;100011.47;5072462;28;19916;-88
2023/03/17 00:09:43;;;;;;;;;;;;;;;5.21;75.58;100010.59;5072361;28;20501;-88
2023/03/17 00:12:09;;;;;;;;;;;;;;;5.38;74.56;100014.25;5071491;28;19923;-89
2023/03/17 00:14:35;;;;;;;;;;;;;;;5.34;74.77;100008.97;5072763;28;19919;-88
2023/03/17 00:17:00;;;;;;;;;;;;;;;5.41;74.86;100013.44;5072536;28;19908;-88
2023/03/17 00:19:29;;;;;;;;;;;;;;;5.37;74.59;100012.50;5072324;28;19912;-88
2023/03/17 00:21:56;;;;;;;;;;;;;;;5.34;74.81;100017.69;5072850;28;19917;-89
2023/03/17 00:24:21;;;;;;;;;;;;;;;5.45;74.56;100016.94;5071950;28;19955;-89
2023/03/17 00:26:47;;;;;;;;;;;;;;;5.24;75.17;100021.09;5071596;28;19974;-89
2023/03/17 00:29:12;;;;;;;;;;;;;;;5.47;74.77;100009.97;5072164;28;19912;-89
2023/03/17 00:31:38;;;;;;;;;;;;;;;5.50;74.46;100016.16;5072140;28;19916;-89
2023/03/17 00:34:04;;;;;;;;;;;;;;;5.35;74.81;100010.75;5071854;28;19912;-89
2023/03/17 00:36:31;;;;;;;;;;;;;;;5.29;75.69;100019.41;5071609;28;19947;-89
2023/03/17 00:38:57;;;;;;;;;;;;;;;5.28;75.43;100011.53;5071524;28;19974;-89
2023/03/17 00:41:22;;;;;;;;;;;;;;;5.36;75.37;100022.94;5071341;28;19920;-90
2023/03/17 00:43:48;;;;;;;;;;;;;;;5.10;75.55;100020.06;5071718;28;20394;-89
2023/03/17 00:46:15;;;;;;;;;;;;;;;5.26;75.62;100019.34;5071971;28;19935;-88
2023/03/17 00:48:44;;;;;;;;;;;;;;;5.13;75.94;100020.09;5071532;28;20389;-89
2023/03/17 00:51:10;;;;;;;;;;;;;;;5.10;76.57;100020.91;5071424;28;19976;-89
2023/03/17 00:53:35;;;;;;;;;;;;;;;5.19;75.87;100017.56;5070612;28;19920;-89
2023/03/17 00:56:01;;;;;;;;;;;;;;;5.24;75.69;100030.69;5071436;28;19916;-89
2023/03/17 00:58:31;;;;;;;;;;;;;;;5.34;75.27;100027.28;5071475;28;20007;-89
2023/03/17 01:00:57;;;;;;;;;;;;;;;5.32;75.66;100032.50;5071331;28;20409;-90
2023/03/17 01:03:23;;;;;;;;;;;;;;;5.12;76.07;100029.66;5071658;28;19916;-89
2023/03/17 01:05:51;;;;;;;;;;;;;;;5.25;76.13;100037.66;5071540;28;19916;-89
2023/03/17 01:08:16;;;;;;;;;;;;;;;5.25;76.02;100035.03;5071193;28;19923;-89
2023/03/17 01:10:42;;;;;;;;;;;;;;;5.28;75.87;100042.91;5071077;28;19913;-87
2023/03/17 01:13:10;;;;;;;;;;;;;;;5.10;76.02;100038.38;5071380;28;19936;-88
2023/03/17 01:15:36;;;;;;;;;;;;;;;5.14;76.24;100041.03;5070847;28;19913;-87
2023/03/17 01:18:01;;;;;;;;;;;;;;;5.13;76.53;100038.41;5071515;28;19970;-88
2023/03/17 01:20:29;;;;;;;;;;;;;;;5.06;76.60;100053.09;5071385;28;19950;-89
2023/03/17 01:22:55;;;;;;;;;;;;;;;5.08;77.06;100047.91;5072319;28;19912;-89
2023/03/17 01:25:20;;;;;;;;;;;;;;;5.31;76.44;100049.06;5071203;28;20648;-90
2023/03/17 01:27:46;;;;;;;;;;;;;;;5.26;76.04;100045.53;5071025;28;19919;-88
2023/03/17 01:30:12;;;;;;;;;;;;;;;5.07;75.92;100048.78;5071219;28;19999;-88
2023/03/17 01:32:38;;;;;;;;;;;;;;;5.01;76.58;100047.81;5071534;28;19912;-87
2023/03/17 01:35:03;;;;;;;;;;;;;;;5.20;76.23;100045.44;5070699;28;19913;-87
2023/03/17 01:37:29;;;;;;;;;;;;;;;5.36;76.01;100050.00;5070239;28;19916;-88
2023/03/17 01:39:54;;;;;;;;;;;;;;;5.23;75.50;100048.09;5070914;28;19991;-87
2023/03/17 01:42:19;;;;;;;;;;;;;;;5.17;76.10;100048.91;5070747;28;19912;-87
2023/03/17 01:45:00;;;;;;;;;;;;;;;5.33;75.59;100049.97;5071305;28;19912;-88
2023/03/17 01:47:27;;;;;;;;;;;;;;;5.30;75.42;100056.88;5070430;28;19923;-87
2023/03/17 01:49:53;;;;;;;;;;;;;;;5.29;75.16;100057.78;5070466;28;19920;-86
2023/03/17 01:52:20;;;;;;;;;;;;;;;5.30;75.75;100059.50;5071067;28;20350;-86
2023/03/17 01:54:58;;;;;;;;;;;;;;;5.28;75.42;100058.63;5070819;28;19912;-87
2023/03/17 01:57:30;;;;;;;;;;;;;;;5.38;74.69;100068.34;5070753;28;19913;-87
2023/03/17 01:59:59;;;;;;;;;;;;;;;5.41;74.50;100064.88;5069586;28;20401;-87
2023/03/17 02:02:29;;;;;;;;;;;;;;;5.45;74.33;100064.91;5070070;28;20512;-87
2023/03/17 02:04:56;;;;;;;;;;;;;;;5.54;73.93;100070.25;5070920;28;19912;-87
2023/03/17 02:07:22;;;;;;;;;;;;;;;5.59;73.73;100070.31;5065748;28;19917;-87
2023/03/17 02:09:48;;;;;;;;;;;;;;;5.64;73.32;100078.22;5056495;28;19924;-86
2023/03/17 02:12:14;;;;;;;;;;;;;;;5.63;73.12;100079.97;5070230;28;19912;-87
2023/03/17 02:14:40;;;;;;;;;;;;;;;5.34;74.06;100077.00;5070514;28;19920;-86
2023/03/17 02:17:06;;;;;;;;;;;;;;;5.50;73.39;100080.66;5069790;28;19920;-88
2023/03/17 02:19:31;;;;;;;;;;;;;;;5.64;72.96;100084.34;5071071;28;19913;-87
2023/03/17 02:21:58;;;;;;;;;;;;;;;5.61;72.78;100084.31;5070059;28;19916;-87
2023/03/17 02:24:32;;;;;;;;;;;;;;;5.57;73.32;100091.22;5070300;28;19973;-88
2023/03/17 02:26:59;;;;;;;;;;;;;;;5.60;72.79;100084.28;5070331;28;19918;-87
2023/03/17 02:29:26;;;;;;;;;;;;;;;5.55;72.62;100087.72;5070517;28;20026;-87
2023/03/17 02:31:52;;;;;;;;;;;;;;;5.69;72.39;100094.88;5069973;28;19927;-87
2023/03/17 02:34:17;;;;;;;;;;;;;;;5.63;71.95;100102.66;5070372;28;19999;-87
2023/03/17 02:36:43;;;;;;;;;;;;;;;5.53;72.24;100085.94;5070527;28;19912;-87
2023/03/17 02:39:08;;;;;;;;;;;;;;;5.64;72.04;100091.31;5070102;28;20397;-87
2023/03/17 02:41:35;;;;;;;;;;;;;;;5.65;71.96;100099.16;5069919;28;19916;-88
2023/03/17 02:44:00;;;;;;;;;;;;;;;5.81;71.17;100100.25;5070224;28;19916;-88
2023/03/17 02:46:25;;;;;;;;;;;;;;;5.88;70.63;100096.81;5070016;28;20432;-88
2023/03/17 02:48:51;;;;;;;;;;;;;;;5.98;70.36;100112.66;5070080;28;19916;-87
2023/03/17 02:51:16;;;;;;;;;;;;;;;5.88;70.08;100107.28;5070632;28;20449;-86
2023/03/17 02:53:42;;;;;;;;;;;;;;;5.86;70.06;100113.38;5070488;28;19913;-87
2023/03/17 02:56:08;;;;;;;;;;;;;;;6.00;70.08;100111.81;5069888;28;20326;-88
2023/03/17 02:58:34;;;;;;;;;;;;;;;6.20;68.92;100114.63;5070393;28;19912;-88
2023/03/17 03:00:59;;;;;;;;;;;;;;;5.86;69.87;100116.00;5069838;28;20432;-89
2023/03/17 03:03:25;;;;;;;;;;;;;;;5.89;69.48;100114.28;5069949;28;19926;-88
2023/03/17 03:05:50;;;;;;;;;;;;;;;5.83;69.88;100129.06;5069976;28;19949;-88
2023/03/17 03:08:16;;;;;;;;;;;;;;;5.81;69.54;100121.19;5069871;28;20382;-87
2023/03/17 03:10:41;;;;;;;;;;;;;;;5.94;69.40;100131.78;5069751;28;19913;-88
2023/03/17 03:13:07;;;;;;;;;;;;;;;6.07;68.56;100126.72;5069916;28;20390;-88
2023/03/17 03:15:32;;;;;;;;;;;;;;;6.15;68.02;100125.91;5071381;28;19912;-87
2023/03/17 03:17:58;;;;;;;;;;;;;;;6.12;68.25;100125.88;5072365;28;20011;-89
2023/03/17 03:20:23;;;;;;;;;;;;;;;6.10;67.58;100138.97;5073871;28;19919;-88
2023/03/17 03:22:48;;;;;;;;;;;;;;;6.19;68.06;100139.06;5073153;28;20363;-87
2023/03/17 03:25:14;;;;;;;;;;;;;;;6.16;67.37;100136.41;5073423;28;19913;-87
2023/03/17 03:27:39;;;;;;;;;;;;;;;6.31;66.74;100142.69;5071214;28;20408;-88
2023/03/17 03:30:06;;;;;;;;;;;;;;;6.21;67.06;100145.22;5073525;28;19913;-88
2023/03/17 03:32:32;;;;;;;;;;;;;;;6.21;67.42;100139.97;5073614;28;20398;-88
2023/03/17 03:34:58;;;;;;;;;;;;;;;6.31;66.57;100143.53;5073812;28;19919;-89
2023/03/17 03:37:23;;;;;;;;;;;;;;;6.45;66.44;100139.31;5073576;28;19974;-87
2023/03/17 03:39:48;;;;;;;;;;;;;;;6.60;65.44;100142.94;5073484;28;20318;-87
2023/03/17 03:42:15;;;;;;;;;;;;;;;6.26;66.34;100138.25;5079329;28;19980;-84
2023/03/17 03:44:40;;;;;;;;;;;;;;;6.38;66.14;100139.22;5094161;28;19916;-85
2023/03/17 03:47:06;;;;;;;;;;;;;;;6.18;66.17;100139.03;5086670;28;20021;-86
2023/03/17 03:49:31;;;;;;;;;;;;;;;6.34;66.52;100138.34;5076173;28;19995;-88
2023/03/17 03:51:57;;;;;;;;;;;;;;;6.47;65.66;100141.94;5073045;28;20023;-88
2023/03/17 03:54:22;;;;;;;;;;;;;;;6.51;65.08;100151.59;5072798;28;20447;-89
2023/03/17 03:56:47;;;;;;;;;;;;;;;6.44;65.27;100147.16;5072842;28;19916;-89
2023/03/17 03:59:13;;;;;;;;;;;;;;;6.71;64.62;100146.53;5072008;28;19965;-89
2023/03/17 04:01:40;;;;;;;;;;;;;;;6.63;64.47;100146.44;5087736;28;19965;-90
2023/03/17 04:04:05;;;;;;;;;;;;;;;6.47;64.72;100147.19;5071018;28;19917;-91
2023/03/17 04:06:31;;;;;;;;;;;;;;;6.31;64.92;100156.66;5066384;28;19920;-90
2023/03/17 04:08:56;;;;;;;;;;;;;;;6.43;64.80;100155.91;5072064;28;19916;-91
2023/03/17 04:11:21;;;;;;;;;;;;;;;6.23;65.52;100160.94;5070907;28;19971;-92
2023/03/17 04:13:47;;;;;;;;;;;;;;;5.99;66.13;100159.81;5071687;28;19912;-87
2023/03/17 04:16:12;;;;;;;;;;;;;;;6.16;66.02;100169.59;5071746;28;19920;-90
2023/03/17 04:18:37;;;;;;;;;;;;;;;6.21;65.78;100178.38;5071625;28;19916;-89
2023/03/17 04:21:03;;;;;;;;;;;;;;;6.31;65.14;100171.50;5069919;28;20348;-90
2023/03/17 04:23:30;;;;;;;;;;;;;;;6.07;65.95;100176.50;5069708;28;19920;-89
2023/03/17 04:25:55;;;;;;;;;;;;;;;6.36;65.04;100182.91;5069957;28;19947;-88
2023/03/17 04:28:21;;;;;;;;;;;;;;;6.50;64.53;100186.53;5068587;28;19981;-90
2023/03/17 04:30:46;;;;;;;;;;;;;;;6.44;64.58;100191.69;5069290;28;19916;-91
2023/03/17 04:33:12;;;;;;;;;;;;;;;6.28;64.86;100194.16;5070782;28;19916;-87
2023/03/17 04:35:37;;;;;;;;;;;;;;;6.44;64.69;100192.59;5071586;28;19912;-88
2023/03/17 04:38:03;;;;;;;;;;;;;;;6.33;64.54;100198.59;5071413;28;19912;-88
2023/03/17 04:40:28;;;;;;;;;;;;;;;6.50;64.22;100202.25;5071447;28;20447;-87
2023/03/17 04:42:53;;;;;;;;;;;;;;;6.50;64.06;100198.75;5069649;28;19920;-88
2023/03/17 04:45:19;;;;;;;;;;;;;;;6.70;64.13;100205.06;5070931;28;19916;-91
2023/03/17 04:47:45;;;;;;;;;;;;;;;6.45;64.03;100209.19;5070689;28;20007;-88
2023/03/17 04:50:10;;;;;;;;;;;;;;;6.67;64.01;100212.88;5068776;28;20007;-88
2023/03/17 04:52:37;;;;;;;;;;;;;;;6.76;63.61;100219.97;5071482;28;19912;-91
2023/03/17 04:55:04;;;;;;;;;;;;;;;6.76;63.58;100219.97;5071609;28;19912;-91
2023/03/17 04:57:29;;;;;;;;;;;;;;;6.63;64.15;100216.38;5069536;28;19931;-91
2023/03/17 04:59:56;;;;;;;;;;;;;;;6.62;64.14;100222.47;5070415;28;19920;-89
2023/03/17 05:02:21;;;;;;;;;;;;;;;6.69;63.69;100233.88;5071805;28;19917;-90
2023/03/17 05:04:47;;;;;;;;;;;;;;;6.91;63.00;100234.97;5070543;28;19912;-87
2023/03/17 05:07:13;;;;;;;;;;;;;;;6.75;63.38;100232.22;5073587;28;19916;-89
2023/03/17 05:09:38;;;;;;;;;;;;;;;6.87;63.58;100238.44;5070457;28;19915;-85
2023/03/17 05:12:04;;;;;;;;;;;;;;;6.53;64.37;100231.09;5071931;28;20364;-88
2023/03/17 05:14:29;;;;;;;;;;;;;;;6.63;64.88;100239.97;5073459;28;19924;-87
2023/03/17 05:16:56;;;;;;;;;;;;;;;6.97;63.96;100243.75;5075004;28;20301;-87
2023/03/17 05:19:21;;;;;;;;;;;;;;;6.83;63.86;100250.63;5073232;28;19920;-88
2023/03/17 05:21:47;;;;;;;;;;;;;;;7.14;63.04;100251.78;5072464;28;19972;-93
2023/03/17 05:24:12;;;;;;;;;;;;;;;7.15;62.70;100250.00;5072152;28;19921;-90
2023/03/17 05:26:38;;;;;;;;;;;;;;;7.25;63.03;100257.09;5072232;28;19920;-90
2023/03/17 05:29:04;;;;;;;;;;;;;;;7.06;62.80;100263.06;5073264;28;20341;-90
2023/03/17 05:31:30;;;;;;;;;;;;;;;7.14;62.42;100257.03;5070379;28;19912;-89
2023/03/17 05:33:56;;;;;;;;;;;;;;;7.27;61.81;100257.97;5072660;28;19934;-90
2023/03/17 05:36:21;;;;;;;;;;;;;;;7.36;62.00;100272.94;5070846;28;19920;-92
2023/03/17 05:38:46;;;;;;;;;;;;;;;7.41;62.14;100263.31;5070856;28;19912;-90
2023/03/17 05:41:12;;;;;;;;;;;;;;;7.18;62.47;100268.41;5070572;28;19922;-91
2023/03/17 05:43:37;;;;;;;;;;;;;;;7.22;62.87;100271.97;5071689;28;19917;-93
2023/03/17 05:46:03;;;;;;;;;;;;;;;7.31;62.40;100272.03;5071952;28;19956;-91
2023/03/17 05:48:28;;;;;;;;;;;;;;;7.51;61.09;100275.66;5072088;28;19913;-91
2023/03/17 05:50:53;;;;;;;;;;;;;;;7.55;61.78;100275.69;5070753;28;20409;-90
2023/03/17 05:53:19;;;;;;;;;;;;;;;7.45;61.64;100280.00;5069472;28;20310;-91
2023/03/17 05:55:45;;;;;;;;;;;;;;;7.41;61.57;100283.47;5070391;28;20007;-90
2023/03/17 05:58:11;;;;;;;;;;;;;;;7.41;62.17;100283.47;5070105;28;19917;-87
2023/03/17 06:00:37;;;;;;;;;;;;;;;7.56;61.78;100288.81;5071056;28;19919;-90
2023/03/17 06:03:03;;;;;;;;;;;;;;;7.83;60.72;100284.59;5070865;28;19916;-89
2023/03/17 06:05:28;;;;;;;;;;;;;;;7.75;61.28;100279.28;5070815;28;20413;-90
2023/03/17 06:07:54;;;;;;;;;;;;;;;7.87;60.32;100291.63;5070179;28;19916;-92
2023/03/17 06:10:19;;;;;;;;;;;;;;;7.51;61.00;100293.16;5069652;28;19919;-89
2023/03/17 06:12:45;;;;;;;;;;;;;;;7.60;60.91;100306.34;5069358;28;19963;-90
2023/03/17 06:15:10;;;;;;;;;;;;;;;7.51;60.88;100306.28;5066412;28;19916;-92
2023/03/17 06:17:35;;;;;;;;;;;;;;;7.79;59.64;100309.09;5070129;28;19948;-91
2023/03/17 06:20:02;;;;;;;;;;;;;;;7.73;60.46;100309.06;5068381;28;19982;-88
2023/03/17 06:22:27;;;;;;;;;;;;;;;8.14;60.59;100311.94;5059276;28;19916;-88
2023/03/17 06:24:52;;;;;;;;;;;;;;;8.20;58.19;100309.31;5069291;28;20344;-87
2023/03/17 06:27:18;;;;;;;;;;;;;;;8.08;59.44;100319.78;5070254;28;19916;-89
2023/03/17 06:29:44;;;;;;;;;;;;;;;8.30;58.18;100310.22;5069914;28;19967;-89
2023/03/17 06:32:10;;;;;;;;;;;;;;;8.55;57.46;100313.00;5070094;28;19916;-90
2023/03/17 06:34:35;;;;;;;;;;;;;;;8.63;57.19;100318.28;5069812;28;19919;-89
2023/03/17 06:37:00;;;;;;;;;;;;;;;8.67;55.98;100317.41;5069429;28;19928;-89
2023/03/17 06:39:26;;;;;;;;;;;;;;;8.40;56.88;100319.94;5070734;28;19912;-90
2023/03/17 06:41:51;;;;;;;;;;;;;;;8.16;57.30;100327.69;5069815;28;20492;-90
2023/03/17 06:44:16;;;;;;;;;;;;;;;8.01;57.43;100317.97;5069969;28;19916;-90
2023/03/17 06:46:42;;;;;;;;;;;;;;;8.48;56.76;100326.97;5070114;28;19912;-90
2023/03/17 06:49:07;;;;;;;;;;;;;;;8.61;56.66;100323.53;5070565;28;19919;-90
2023/03/17 06:51:35;;;;;;;;;;;;;;;8.80;55.77;100331.47;5072648;28;20349;-90
2023/03/17 06:54:00;;;;;;;;;;;;;;;8.85;55.77;100329.72;5074285;28;19913;-93
2023/03/17 06:56:26;;;;;;;;;;;;;;;9.13;56.10;100335.94;5073657;28;19912;-92
2023/03/17 06:58:52;;;;;;;;;;;;;;;9.35;56.50;100336.81;5072705;28;19912;-91
2023/03/17 07:01:18;;;;;;;;;;;;;;;9.20;53.52;100334.16;5074234;28;19934;-92
2023/03/17 07:03:44;;;;;;;;;;;;;;;9.34;53.80;100335.03;5089426;28;19912;-92
2023/03/17 07:06:09;;;;;;;;;;;;;;;9.28;53.67;100335.94;5074143;28;19919;-94
2023/03/17 07:08:35;;;;;;;;;;;;;;;9.38;53.38;100342.06;5073777;28;20362;-93
2023/03/17 07:11:02;;;;;;;;;;;;;;;9.61;53.13;100339.44;5073442;28;19916;-91
2023/03/17 07:13:28;;;;;;;;;;;;;;;9.44;52.83;100339.44;5073717;28;19962;-91
2023/03/17 07:15:54;;;;;;;;;;;;;;;9.77;53.44;100339.41;5072844;28;19943;-92
2023/03/17 07:18:19;;;;;;;;;;;;;;;9.63;52.59;100342.06;5073527;28;19955;-92
2023/03/17 07:20:45;;;;;;;;;;;;;;;10.30;51.33;100327.88;5073867;28;20370;-92
2023/03/17 07:23:15;;;;;;;;;;;;;;;10.19;51.00;100333.19;5073517;28;19969;-90
2023/03/17 07:25:42;;;;;;;;;;;;;;;10.32;51.68;100348.97;5073457;28;19916;-90
2023/03/17 07:28:09;;;;;;;;;;;;;;;11.04;50.01;100323.97;5073343;28;20461;-91
2023/03/17 07:30:34;;;;;;;;;;;;;;;11.22;48.17;100331.75;5073565;28;19995;-91
2023/03/17 07:33:00;;;;;;;;;;;;;;;11.23;46.97;100328.25;5073874;28;20078;-90
2023/03/17 07:35:26;;;;;;;;;;;;;;;10.59;48.42;100331.28;5073768;28;20015;-89
2023/03/17 07:37:52;;;;;;;;;;;;;;;10.45;49.09;100342.75;5073214;28;19916;-90
2023/03/17 07:40:17;;;;;;;;;;;;;;;11.01;48.17;100327.50;5073260;28;19920;-92
2023/03/17 07:42:44;;;;;;;;;;;;;;;10.99;48.53;100333.69;5073388;28;19999;-91
2023/03/17 07:45:10;;;;;;;;;;;;;;;10.93;47.53;100340.75;5073302;28;20015;-91
2023/03/17 07:47:35;;;;;;;;;;;;;;;11.17;47.76;100332.69;5073368;28;20368;-91
2023/03/17 07:50:00;;;;;;;;;;;;;;;11.37;48.10;100333.41;5073425;28;19973;-90
2023/03/17 07:52:25;;;;;;;;;;;;;;;11.71;46.61;100333.13;5073227;28;20006;-91
2023/03/17 07:54:51;;;;;;;;;;;;;;;11.89;43.28;100324.13;5073494;28;19959;-92
2023/03/17 07:57:17;;;;;;;;;;;;;;;11.48;42.64;100330.69;5071827;28;19912;-88
2023/03/17 07:59:42;;;;;;;;;;;;;;;11.81;42.37;100323.31;5073222;28;20283;-90
2023/03/17 08:02:12;;;;;;;;;;;;;;;11.21;42.88;100330.00;5072777;28;19915;-90
2023/03/17 08:04:38;;;;;;;;;;;;;;;11.00;43.63;100335.44;5073042;28;19936;-90
2023/03/17 08:07:05;;;;;;;;;;;;;;;11.34;42.36;100330.81;5072791;28;20383;-90
2023/03/17 08:09:30;;;;;;;;;;;;;;;11.63;42.01;100329.66;5073200;28;19912;-90
2023/03/17 08:11:56;;;;;;;;;;;;;;;12.37;44.39;100328.91;5072948;28;19913;-89
2023/03/17 08:14:21;;;;;;;;;;;;;;;12.34;43.81;100332.47;5072952;28;20306;-91
2023/03/17 08:16:47;;;;;;;;;;;;;;;12.67;44.60;100327.63;5072470;28;19912;-90
2023/03/17 08:19:12;;;;;;;;;;;;;;;13.13;44.33;100330.50;5073145;28;19920;-90
2023/03/17 08:21:37;;;;;;;;;;;;;;;12.85;39.74;100323.88;5073155;28;19965;-90
2023/03/17 08:24:04;;;;;;;;;;;;;;;11.64;42.49;100328.78;5072653;28;19920;-90
2023/03/17 08:26:30;;;;;;;;;;;;;;;11.87;43.49;100330.34;5073270;28;19960;-89
2023/03/17 08:28:55;;;;;;;;;;;;;;;12.32;41.75;100326.31;5090063;28;19912;-90
2023/03/17 08:31:21;;;;;;;;;;;;;;;12.09;41.35;100325.72;5091170;28;19916;-88
2023/03/17 08:33:48;;;;;;;;;;;;;;;12.53;39.79;100319.03;5083806;28;19912;-90
2023/03/17 08:36:15;;;;;;;;;;;;;;;12.41;39.30;100324.47;5098215;28;19936;-90
2023/03/17 08:38:40;;;;;;;;;;;;;;;11.78;40.65;100328.66;5098120;28;19904;-89
2023/03/17 08:41:08;;;;;;;;;;;;;;;11.22;41.14;100326.47;5082881;28;19917;-89
2023/03/17 08:43:34;;;;;;;;;;;;;;;11.57;41.63;100322.69;5072223;28;19935;-90
2023/03/17 08:46:01;;;;;;;;;;;;;;;12.26;40.88;100318.44;5072363;28;19913;-92
2023/03/17 08:48:27;;;;;;;;;;;;;;;12.76;39.54;100317.81;5071955;28;19912;-90
2023/03/17 08:50:52;;;;;;;;;;;;;;;13.39;37.09;100322.19;5071533;28;19935;-90
2023/03/17 08:53:18;;;;;;;;;;;;;;;12.84;38.90;100315.94;5071755;28;19912;-90
2023/03/17 08:55:43;;;;;;;;;;;;;;;12.62;38.31;100316.25;5071499;28;20382;-91
2023/03/17 08:58:09;;;;;;;;;;;;;;;12.62;37.74;100310.06;5071413;28;19970;-91
2023/03/17 09:00:34;;;;;;;;;;;;;;;13.46;35.50;100315.03;5072052;28;20395;-91
2023/03/17 09:03:00;;;;;;;;;;;;;;;13.33;36.26;100312.59;5071878;28;19959;-90
2023/03/17 09:05:25;;;;;;;;;;;;;;;13.50;38.84;100308.75;5071185;28;20378;-90
2023/03/17 09:07:51;;;;;;;;;;;;;;;13.55;36.51;100309.56;5071548;28;20267;-89
2023/03/17 09:10:21;;;;;;;;;;;;;;;12.92;36.38;100297.31;5071715;28;19912;-90
2023/03/17 09:12:47;;;;;;;;;;;;;;;12.92;42.46;100300.81;5071369;28;19926;-88
2023/03/17 09:15:12;;;;;;;;;;;;;;;13.32;38.95;100308.13;5072501;28;20003;-88
2023/03/17 09:17:38;;;;;;;;;;;;;;;13.07;34.28;100295.28;5072120;28;19913;-88
2023/03/17 09:20:05;;;;;;;;;;;;;;;13.48;35.26;100294.66;5071524;28;19942;-88
2023/03/17 09:22:30;;;;;;;;;;;;;;;13.25;35.18;100295.88;5071353;28;19968;-88
2023/03/17 09:24:56;;;;;;;;;;;;;;;12.98;35.35;100289.28;5071718;28;19916;-88
2023/03/17 09:27:22;;;;;;;;;;;;;;;12.08;36.69;100298.41;5071550;28;19920;-87
2023/03/17 09:29:47;;;;;;;;;;;;;;;12.40;36.41;100290.97;5071744;28;19912;-87
2023/03/17 09:32:12;;;;;;;;;;;;;;;12.29;36.49;100302.53;5071608;28;19916;-88
2023/03/17 09:34:38;;;;;;;;;;;;;;;12.17;35.05;100297.41;5071622;28;19919;-88
2023/03/17 09:37:03;;;;;;;;;;;;;;;12.25;35.49;100297.31;5069949;28;20806;-88
2023/03/17 09:39:29;;;;;;;;;;;;;;;12.10;36.24;100293.97;5071386;28;19912;-88
2023/03/17 09:42:21;;;;;;;;;;;;;;;12.40;36.54;100298.91;5071404;28;19912;-88
2023/03/17 09:44:58;;;;;;;;;;;;;;;12.20;36.81;100294.72;5047656;28;19912;-88
2023/03/17 09:47:24;;;;;;;;;;;;;;;12.38;36.05;100296.28;5071044;28;19917;-88
2023/03/17 09:49:57;;;;;;;;;;;;;;;12.39;36.27;100297.13;5071390;28;19935;-88
2023/03/17 09:52:30;;;;;;;;;;;;;;;12.28;36.12;100302.56;5071494;28;19912;-88
2023/03/17 09:54:55;;;;;;;;;;;;;;;12.28;36.94;100292.88;5071685;28;19961;-87
2023/03/17 09:57:21;;;;;;;;;;;;;;;12.58;35.71;100287.19;5070407;28;20344;-90
2023/03/17 09:59:52;;;;;;;;;;;;;;;12.45;35.59;100290.00;5060598;28;20440;-91
2023/03/17 10:02:26;;;;;;;;;;;;;;;12.80;34.80;100282.47;5070277;28;19966;-92
2023/03/17 10:04:53;;;;;;;;;;;;;;;13.39;35.90;100285.97;5068716;28;19989;-90
2023/03/17 10:07:22;;;;;;;;;;;;;;;13.55;37.14;100288.38;5062829;28;19966;-95
2023/03/17 10:09:56;;;;;;;;;;;;;;;12.84;34.73;100289.47;5065479;28;20443;-90
2023/03/17 10:12:32;;;;;;;;;;;;;;;12.65;35.34;100283.56;5059040;28;19979;-93
2023/03/17 10:14:59;;;;;;;;;;;;;;;12.83;35.98;100283.28;5067520;28;19916;-94
2023/03/17 10:17:29;;;;;;;;;;;;;;;13.13;34.68;100286.38;5069210;28;19916;-93
2023/03/17 10:19:55;;;;;;;;;;;;;;;13.19;35.10;100278.34;5061901;28;19916;-93
2023/03/17 10:22:24;;;;;;;;;;;;;;;13.17;34.80;100273.94;5065201;28;19923;-93
2023/03/17 10:24:51;;;;;;;;;;;;;;;12.90;36.29;100278.78;5065535;28;19912;-96
2023/03/17 10:27:16;;;;;;;;;;;;;;;12.53;37.35;100276.69;5067616;28;19917;-95
2023/03/17 10:29:42;;;;;;;;;;;;;;;12.58;37.33;100274.84;5072070;28;19923;-93
2023/03/17 10:32:11;;;;;;;;;;;;;;;11.83;39.02;100276.59;5072512;28;19923;-90
2023/03/17 10:34:38;;;;;;;;;;;;;;;11.72;40.20;100276.72;5077602;28;19913;-91
2023/03/17 10:37:14;;;;;;;;;;;;;;;11.34;41.26;100282.34;5073768;28;19912;-87
2023/03/17 10:39:58;;;;;;;;;;;;;;;11.57;40.89;100267.19;5072713;28;20057;-88
2023/03/17 10:42:28;;;;;;;;;;;;;;;11.50;40.43;100277.84;5062988;28;19928;-89
2023/03/17 10:44:54;;;;;;;;;;;;;;;11.92;41.37;100273.00;5073378;28;19917;-88
2023/03/17 10:47:22;;;;;;;;;;;;;;;11.74;40.10;100268.75;5073211;28;20307;-90
2023/03/17 10:49:48;;;;;;;;;;;;;;;11.74;39.69;100269.66;5073787;28;20455;-89
2023/03/17 10:52:22;;;;;;;;;;;;;;;11.44;39.85;100269.06;5074182;28;19912;-90
2023/03/17 10:54:50;;;;;;;;;;;;;;;12.01;39.82;100267.63;5073410;28;19919;-88
2023/03/17 10:57:17;;;;;;;;;;;;;;;12.09;40.59;100265.75;5071954;28;20419;-89
2023/03/17 10:59:48;;;;;;;;;;;;;;;12.52;40.54;100264.34;5073878;28;19912;-88
2023/03/17 11:02:19;;;;;;;;;;;;;;;12.48;39.52;100265.25;5073851;28;20500;-89
2023/03/17 11:04:45;;;;;;;;;;;;;;;12.63;39.52;100269.47;5073545;28;19918;-90
2023/03/17 11:07:19;;;;;;;;;;;;;;;13.03;40.74;100261.78;5089478;28;20445;-89
2023/03/17 11:09:49;;;;;;;;;;;;;;;13.07;38.46;100267.94;5074576;28;19920;-92
2023/03/17 11:12:28;;;;;;;;;;;;;;;13.36;38.70;100266.59;5090579;28;20015;-90
2023/03/17 11:14:58;;;;;;;;;;;;;;;13.20;37.36;100260.66;5075122;28;19920;-89
2023/03/17 11:17:32;;;;;;;;;;;;;;;13.16;38.87;100258.94;5075238;28;19912;-88
2023/03/17 11:20:03;;;;;;;;;;;;;;;13.03;37.54;100251.19;5074644;28;19920;-91
2023/03/17 11:22:47;;;;;;;;;;;;;;;12.71;37.21;100247.31;5074384;28;20014;-89
2023/03/17 11:25:19;;;;;;;;;;;;;;;13.12;37.47;100252.84;5073793;28;19919;-90
2023/03/17 11:28:01;;;;;;;;;;;;;;;12.98;40.08;100247.75;5073111;28;20255;-89
2023/03/17 11:30:33;;;;;;;;;;;;;;;12.93;37.39;100249.63;5073828;28;19916;-89
2023/03/17 11:33:08;;;;;;;;;;;;;;;13.75;37.37;100243.78;5073285;28;19923;-88
2023/03/17 11:35:42;;;;;;;;;;;;;;;13.19;35.71;100243.00;5072925;28;19916;-92
2023/03/17 11:38:20;;;;;;;;;;;;;;;12.79;36.62;100248.94;5072824;28;19912;-86
2023/03/17 11:40:55;;;;;;;;;;;;;;;13.57;34.95;100237.06;5073603;28;19919;-87
2023/03/17 11:43:39;;;;;;;;;;;;;;;13.93;34.20;100239.91;5072674;28;19923;-91
2023/03/17 11:46:07;;;;;;;;;;;;;;;13.98;33.51;100229.22;5072743;28;19916;-89
2023/03/17 11:48:33;;;;;;;;;;;;;;;13.81;34.08;100237.50;5073213;28;19923;-90
2023/03/17 11:51:12;;;;;;;;;;;;;;;14.04;34.51;100225.53;5073412;28;19912;-92
2023/03/17 11:53:43;;;;;;;;;;;;;;;13.91;34.43;100230.22;5071810;28;20023;-91
2023/03/17 11:56:20;;;;;;;;;;;;;;;13.82;35.01;100225.97;5073357;28;19919;-91
2023/03/17 11:58:51;;;;;;;;;;;;;;;13.87;34.79;100229.44;5073507;28;19913;-92
2023/03/17 12:01:28;;;;;;;;;;;;;;;14.13;35.01;100228.00;5072917;28;19916;-91
2023/03/17 12:04:15;;;;;;;;;;;;;;;13.47;34.59;100235.50;5072740;28;20378;-90
2023/03/17 12:06:46;;;;;;;;;;;;;;;13.19;34.65;100243.00;5072557;28;19913;-89
2023/03/17 12:09:26;;;;;;;;;;;;;;;13.50;33.69;100227.50;5072647;28;19943;-89
2023/03/17 12:11:53;;;;;;;;;;;;;;;13.24;34.31;100233.22;5071509;28;20316;-89
2023/03/17 12:14:31;;;;;;;;;;;;;;;13.19;34.77;100233.31;5072660;28;19969;-89
2023/03/17 12:17:05;;;;;;;;;;;;;;;13.19;34.98;100235.94;5072755;28;19965;-90
2023/03/17 12:19:41;;;;;;;;;;;;;;;13.05;34.73;100230.00;5072002;28;19917;-90
2023/03/17 12:22:06;;;;;;;;;;;;;;;13.02;35.73;100227.38;5072945;28;19916;-91
2023/03/17 12:24:41;;;;;;;;;;;;;;;13.49;34.83;100225.72;5070978;28;19971;-89
2023/03/17 12:27:10;;;;;;;;;;;;;;;13.03;36.67;100230.00;5072263;28;19958;-90
2023/03/17 12:29:42;;;;;;;;;;;;;;;12.89;36.78;100221.44;5071282;28;20271;-90
2023/03/17 12:32:26;;;;;;;;;;;;;;;12.76;36.67;100220.75;5072195;28;19916;-91
2023/03/17 12:34:51;;;;;;;;;;;;;;;12.96;36.58;100223.09;5072269;28;19916;-90
2023/03/17 12:37:18;;;;;;;;;;;;;;;12.76;37.86;100225.16;5070963;28;20002;-90
2023/03/17 12:39:51;;;;;;;;;;;;;;;12.54;37.22;100222.84;5070719;28;19955;-90
2023/03/17 12:42:30;;;;;;;;;;;;;;;12.40;37.23;100220.38;5072012;28;19912;-90